sensor_id;sensor_type;location;lat;lon;timestamp;temperature;humidity
11387;DHT22;5748;53.102;8.456;2023-06-04T00:01:06;15.60;47.60
11387;DHT22;5748;53.102;8.456;2023-06-04T00:03:34;15.50;48.10
11387;DHT22;5748;53.102;8.456;2023-06-04T00:06:02;17.80;49.90
11387;DHT22;5748;53.102;8.456;2023-06-04T00:10:57;15.50;47.10
11387;DHT22;5748;53.102;8.456;2023-06-04T00:15:51;15.40;47.10
11387;DHT22;5748;53.102;8.456;2023-06-04T00:18:18;18.80;51.90
11387;DHT22;5748;53.102;8.456;2023-06-04T00:20:45;17.50;50.70
11387;DHT22;5748;53.102;8.456;2023-06-04T00:23:14;15.20;48.40
11387;DHT22;5748;53.102;8.456;2023-06-04T00:25:40;15.30;47.80
11387;DHT22;5748;53.102;8.456;2023-06-04T00:28:07;15.20;48.00
11387;DHT22;5748;53.102;8.456;2023-06-04T00:30:34;15.10;47.80
11387;DHT22;5748;53.102;8.456;2023-06-04T00:33:01;15.20;48.00
11387;DHT22;5748;53.102;8.456;2023-06-04T00:35:28;15.10;48.80
11387;DHT22;5748;53.102;8.456;2023-06-04T00:37:55;15.20;48.10
11387;DHT22;5748;53.102;8.456;2023-06-04T00:40:24;15.30;48.80
11387;DHT22;5748;53.102;8.456;2023-06-04T00:42:51;15.00;47.80
11387;DHT22;5748;53.102;8.456;2023-06-04T00:45:18;14.80;49.00
11387;DHT22;5748;53.102;8.456;2023-06-04T00:47:45;14.90;49.20
11387;DHT22;5748;53.102;8.456;2023-06-04T00:50:13;14.50;48.30
11387;DHT22;5748;53.102;8.456;2023-06-04T00:52:41;15.10;49.20
11387;DHT22;5748;53.102;8.456;2023-06-04T00:55:09;14.20;47.20
11387;DHT22;5748;53.102;8.456;2023-06-04T00:57:38;14.80;48.10
11387;DHT22;5748;53.102;8.456;2023-06-04T01:00:06;14.70;49.00
11387;DHT22;5748;53.102;8.456;2023-06-04T01:02:38;14.80;48.20
11387;DHT22;5748;53.102;8.456;2023-06-04T01:05:13;14.70;48.40
11387;DHT22;5748;53.102;8.456;2023-06-04T01:07:44;14.70;48.40
11387;DHT22;5748;53.102;8.456;2023-06-04T01:10:12;14.70;48.30
11387;DHT22;5748;53.102;8.456;2023-06-04T01:12:41;14.60;47.80
11387;DHT22;5748;53.102;8.456;2023-06-04T01:15:10;14.60;48.40
11387;DHT22;5748;53.102;8.456;2023-06-04T01:17:40;14.90;48.60
11387;DHT22;5748;53.102;8.456;2023-06-04T01:20:21;14.50;48.40
11387;DHT22;5748;53.102;8.456;2023-06-04T01:25:59;14.50;48.80
11387;DHT22;5748;53.102;8.456;2023-06-04T01:28:30;14.50;48.40
11387;DHT22;5748;53.102;8.456;2023-06-04T01:30:57;14.40;48.00
11387;DHT22;5748;53.102;8.456;2023-06-04T01:33:25;14.30;48.40
11387;DHT22;5748;53.102;8.456;2023-06-04T01:35:52;14.30;48.40
11387;DHT22;5748;53.102;8.456;2023-06-04T01:38:20;14.30;48.50
11387;DHT22;5748;53.102;8.456;2023-06-04T01:40:47;14.30;48.60
11387;DHT22;5748;53.102;8.456;2023-06-04T01:43:18;14.20;49.00
11387;DHT22;5748;53.102;8.456;2023-06-04T01:45:46;14.20;49.20
11387;DHT22;5748;53.102;8.456;2023-06-04T01:48:14;14.10;49.20
11387;DHT22;5748;53.102;8.456;2023-06-04T01:50:41;14.20;48.80
11387;DHT22;5748;53.102;8.456;2023-06-04T01:53:07;14.10;48.40
11387;DHT22;5748;53.102;8.456;2023-06-04T01:55:34;14.00;48.80
11387;DHT22;5748;53.102;8.456;2023-06-04T01:58:03;14.30;49.80
11387;DHT22;5748;53.102;8.456;2023-06-04T02:00:30;14.00;50.00
11387;DHT22;5748;53.102;8.456;2023-06-04T02:02:58;14.00;49.10
11387;DHT22;5748;53.102;8.456;2023-06-04T02:05:26;13.90;48.90
11387;DHT22;5748;53.102;8.456;2023-06-04T02:07:53;13.90;48.80
11387;DHT22;5748;53.102;8.456;2023-06-04T02:10:20;13.90;48.80
11387;DHT22;5748;53.102;8.456;2023-06-04T02:12:55;14.40;49.90
11387;DHT22;5748;53.102;8.456;2023-06-04T02:15:24;13.80;49.20
11387;DHT22;5748;53.102;8.456;2023-06-04T02:17:56;13.80;48.90
11387;DHT22;5748;53.102;8.456;2023-06-04T02:20:25;13.70;48.90
11387;DHT22;5748;53.102;8.456;2023-06-04T02:22:54;13.70;48.90
11387;DHT22;5748;53.102;8.456;2023-06-04T02:25:21;16.90;53.90
11387;DHT22;5748;53.102;8.456;2023-06-04T02:27:49;13.60;50.10
11387;DHT22;5748;53.102;8.456;2023-06-04T02:32:43;13.60;48.60
11387;DHT22;5748;53.102;8.456;2023-06-04T02:35:12;15.00;51.10
11387;DHT22;5748;53.102;8.456;2023-06-04T02:37:40;16.60;52.50
11387;DHT22;5748;53.102;8.456;2023-06-04T02:40:09;13.50;49.50
11387;DHT22;5748;53.102;8.456;2023-06-04T02:45:05;13.50;48.80
11387;DHT22;5748;53.102;8.456;2023-06-04T02:50:02;13.40;48.60
11387;DHT22;5748;53.102;8.456;2023-06-04T02:52:31;13.60;50.80
11387;DHT22;5748;53.102;8.456;2023-06-04T02:54:58;13.20;50.00
11387;DHT22;5748;53.102;8.456;2023-06-04T02:59:52;13.30;48.70
11387;DHT22;5748;53.102;8.456;2023-06-04T03:02:20;13.20;50.20
11387;DHT22;5748;53.102;8.456;2023-06-04T03:04:47;13.10;49.20
11387;DHT22;5748;53.102;8.456;2023-06-04T03:07:16;13.10;49.80
11387;DHT22;5748;53.102;8.456;2023-06-04T03:09:47;13.00;49.70
11387;DHT22;5748;53.102;8.456;2023-06-04T03:12:14;13.30;51.70
11387;DHT22;5748;53.102;8.456;2023-06-04T03:14:41;13.10;50.30
11387;DHT22;5748;53.102;8.456;2023-06-04T03:17:09;13.20;51.20
11387;DHT22;5748;53.102;8.456;2023-06-04T03:19:38;13.00;50.00
11387;DHT22;5748;53.102;8.456;2023-06-04T03:22:06;12.80;50.20
11387;DHT22;5748;53.102;8.456;2023-06-04T03:24:35;13.90;50.50
11387;DHT22;5748;53.102;8.456;2023-06-04T03:27:05;12.90;49.50
11387;DHT22;5748;53.102;8.456;2023-06-04T03:29:34;13.00;49.70
11387;DHT22;5748;53.102;8.456;2023-06-04T03:32:01;12.90;49.50
11387;DHT22;5748;53.102;8.456;2023-06-04T03:34:29;12.90;49.60
11387;DHT22;5748;53.102;8.456;2023-06-04T03:36:57;13.10;49.80
11387;DHT22;5748;53.102;8.456;2023-06-04T03:39:25;13.70;50.40
11387;DHT22;5748;53.102;8.456;2023-06-04T03:41:53;12.90;49.70
11387;DHT22;5748;53.102;8.456;2023-06-04T03:44:22;12.80;49.40
11387;DHT22;5748;53.102;8.456;2023-06-04T03:46:49;12.80;49.80
11387;DHT22;5748;53.102;8.456;2023-06-04T03:49:16;12.80;49.70
11387;DHT22;5748;53.102;8.456;2023-06-04T03:51:43;12.80;49.90
11387;DHT22;5748;53.102;8.456;2023-06-04T03:54:11;12.90;50.00
11387;DHT22;5748;53.102;8.456;2023-06-04T03:56:42;12.80;50.10
11387;DHT22;5748;53.102;8.456;2023-06-04T03:59:10;12.80;50.10
11387;DHT22;5748;53.102;8.456;2023-06-04T04:01:39;13.20;50.60
11387;DHT22;5748;53.102;8.456;2023-06-04T04:04:06;12.80;50.50
11387;DHT22;5748;53.102;8.456;2023-06-04T04:06:33;12.90;50.40
11387;DHT22;5748;53.102;8.456;2023-06-04T04:09:01;12.80;50.40
11387;DHT22;5748;53.102;8.456;2023-06-04T04:11:28;12.80;50.40
11387;DHT22;5748;53.102;8.456;2023-06-04T04:13:56;12.80;50.60
11387;DHT22;5748;53.102;8.456;2023-06-04T04:16:23;12.80;51.00
11387;DHT22;5748;53.102;8.456;2023-06-04T04:18:52;12.80;51.60
11387;DHT22;5748;53.102;8.456;2023-06-04T04:21:19;12.70;51.50
11387;DHT22;5748;53.102;8.456;2023-06-04T04:23:46;12.90;51.00
11387;DHT22;5748;53.102;8.456;2023-06-04T04:26:13;13.20;51.50
11387;DHT22;5748;53.102;8.456;2023-06-04T04:28:42;13.00;51.30
11387;DHT22;5748;53.102;8.456;2023-06-04T04:31:09;13.00;51.50
11387;DHT22;5748;53.102;8.456;2023-06-04T04:33:36;13.00;51.80
11387;DHT22;5748;53.102;8.456;2023-06-04T04:36:06;13.20;51.40
11387;DHT22;5748;53.102;8.456;2023-06-04T04:38:38;13.10;51.90
11387;DHT22;5748;53.102;8.456;2023-06-04T04:41:05;13.20;52.00
11387;DHT22;5748;53.102;8.456;2023-06-04T04:43:34;13.30;52.30
11387;DHT22;5748;53.102;8.456;2023-06-04T04:46:03;13.40;52.50
11387;DHT22;5748;53.102;8.456;2023-06-04T04:48:30;14.00;52.90
11387;DHT22;5748;53.102;8.456;2023-06-04T04:50:57;13.50;52.60
11387;DHT22;5748;53.102;8.456;2023-06-04T04:53:26;13.60;52.80
11387;DHT22;5748;53.102;8.456;2023-06-04T04:55:53;13.60;52.90
11387;DHT22;5748;53.102;8.456;2023-06-04T04:58:20;13.80;52.90
11387;DHT22;5748;53.102;8.456;2023-06-04T05:00:47;13.90;53.00
11387;DHT22;5748;53.102;8.456;2023-06-04T05:03:14;13.90;52.90
11387;DHT22;5748;53.102;8.456;2023-06-04T05:05:41;14.00;52.90
11387;DHT22;5748;53.102;8.456;2023-06-04T05:08:08;14.00;53.00
11387;DHT22;5748;53.102;8.456;2023-06-04T05:10:37;14.20;53.00
11387;DHT22;5748;53.102;8.456;2023-06-04T05:13:04;15.20;55.60
11387;DHT22;5748;53.102;8.456;2023-06-04T05:15:31;14.30;54.80
11387;DHT22;5748;53.102;8.456;2023-06-04T05:17:58;14.70;55.00
11387;DHT22;5748;53.102;8.456;2023-06-04T05:20:27;15.10;55.10
11387;DHT22;5748;53.102;8.456;2023-06-04T05:22:55;15.60;56.20
11387;DHT22;5748;53.102;8.456;2023-06-04T05:25:22;17.40;56.80
11387;DHT22;5748;53.102;8.456;2023-06-04T05:27:50;16.80;55.80
11387;DHT22;5748;53.102;8.456;2023-06-04T05:30:17;17.40;55.80
11387;DHT22;5748;53.102;8.456;2023-06-04T05:32:44;18.00;55.50
11387;DHT22;5748;53.102;8.456;2023-06-04T05:35:11;18.60;55.40
11387;DHT22;5748;53.102;8.456;2023-06-04T05:37:38;19.30;55.30
11387;DHT22;5748;53.102;8.456;2023-06-04T05:40:08;20.70;55.70
11387;DHT22;5748;53.102;8.456;2023-06-04T05:42:36;20.40;54.70
11387;DHT22;5748;53.102;8.456;2023-06-04T05:45:06;20.90;54.40
11387;DHT22;5748;53.102;8.456;2023-06-04T05:47:35;21.50;54.40
11387;DHT22;5748;53.102;8.456;2023-06-04T05:50:02;21.90;54.20
11387;DHT22;5748;53.102;8.456;2023-06-04T05:52:31;22.50;54.10
11387;DHT22;5748;53.102;8.456;2023-06-04T05:54:58;23.00;53.80
11387;DHT22;5748;53.102;8.456;2023-06-04T05:57:25;23.50;53.50
11387;DHT22;5748;53.102;8.456;2023-06-04T05:59:52;24.00;53.20
11387;DHT22;5748;53.102;8.456;2023-06-04T06:02:20;24.40;52.80
11387;DHT22;5748;53.102;8.456;2023-06-04T06:04:47;24.90;53.00
11387;DHT22;5748;53.102;8.456;2023-06-04T06:07:14;25.30;52.50
11387;DHT22;5748;53.102;8.456;2023-06-04T06:09:41;25.80;52.30
11387;DHT22;5748;53.102;8.456;2023-06-04T06:12:08;26.00;52.10
11387;DHT22;5748;53.102;8.456;2023-06-04T06:14:36;26.60;51.80
11387;DHT22;5748;53.102;8.456;2023-06-04T06:17:03;27.10;51.50
11387;DHT22;5748;53.102;8.456;2023-06-04T06:19:31;27.40;50.80
11387;DHT22;5748;53.102;8.456;2023-06-04T06:21:58;27.90;50.30
11387;DHT22;5748;53.102;8.456;2023-06-04T06:24:25;28.20;50.20
11387;DHT22;5748;53.102;8.456;2023-06-04T06:26:52;29.00;50.30
11387;DHT22;5748;53.102;8.456;2023-06-04T06:29:19;28.80;49.80
11387;DHT22;5748;53.102;8.456;2023-06-04T06:31:46;29.10;49.30
11387;DHT22;5748;53.102;8.456;2023-06-04T06:34:13;29.50;49.30
11387;DHT22;5748;53.102;8.456;2023-06-04T06:36:42;29.90;49.00
11387;DHT22;5748;53.102;8.456;2023-06-04T06:39:09;30.20;48.50
11387;DHT22;5748;53.102;8.456;2023-06-04T06:41:36;30.50;48.30
11387;DHT22;5748;53.102;8.456;2023-06-04T06:44:04;30.80;47.40
11387;DHT22;5748;53.102;8.456;2023-06-04T06:46:31;31.10;47.00
11387;DHT22;5748;53.102;8.456;2023-06-04T06:48:58;31.20;46.50
11387;DHT22;5748;53.102;8.456;2023-06-04T06:51:25;31.40;46.00
11387;DHT22;5748;53.102;8.456;2023-06-04T06:53:54;31.60;46.00
11387;DHT22;5748;53.102;8.456;2023-06-04T06:56:21;31.70;46.00
11387;DHT22;5748;53.102;8.456;2023-06-04T06:58:48;31.90;45.80
11387;DHT22;5748;53.102;8.456;2023-06-04T07:01:15;32.20;45.50
11387;DHT22;5748;53.102;8.456;2023-06-04T07:03:42;32.40;45.60
11387;DHT22;5748;53.102;8.456;2023-06-04T07:06:09;32.60;45.20
11387;DHT22;5748;53.102;8.456;2023-06-04T07:08:36;32.90;45.30
11387;DHT22;5748;53.102;8.456;2023-06-04T07:11:04;33.10;45.00
11387;DHT22;5748;53.102;8.456;2023-06-04T07:13:33;33.40;45.20
11387;DHT22;5748;53.102;8.456;2023-06-04T07:16:01;33.60;44.40
11387;DHT22;5748;53.102;8.456;2023-06-04T07:18:28;33.90;44.20
11387;DHT22;5748;53.102;8.456;2023-06-04T07:20:55;34.10;43.80
11387;DHT22;5748;53.102;8.456;2023-06-04T07:23:22;34.30;43.60
11387;DHT22;5748;53.102;8.456;2023-06-04T07:25:49;34.50;43.20
11387;DHT22;5748;53.102;8.456;2023-06-04T07:28:18;34.80;43.00
11387;DHT22;5748;53.102;8.456;2023-06-04T07:30:45;35.00;42.50
11387;DHT22;5748;53.102;8.456;2023-06-04T07:33:12;35.20;42.70
11387;DHT22;5748;53.102;8.456;2023-06-04T07:35:39;35.40;42.50
11387;DHT22;5748;53.102;8.456;2023-06-04T07:38:06;35.70;42.30
11387;DHT22;5748;53.102;8.456;2023-06-04T07:40:33;35.90;42.00
11387;DHT22;5748;53.102;8.456;2023-06-04T07:43:00;36.20;42.00
11387;DHT22;5748;53.102;8.456;2023-06-04T07:45:28;36.40;41.80
11387;DHT22;5748;53.102;8.456;2023-06-04T07:47:56;36.70;41.30
11387;DHT22;5748;53.102;8.456;2023-06-04T07:50:23;36.90;41.20
11387;DHT22;5748;53.102;8.456;2023-06-04T07:52:50;37.40;40.50
11387;DHT22;5748;53.102;8.456;2023-06-04T07:55:17;37.40;40.70
11387;DHT22;5748;53.102;8.456;2023-06-04T07:57:44;37.50;40.00
11387;DHT22;5748;53.102;8.456;2023-06-04T08:00:12;37.80;40.00
11387;DHT22;5748;53.102;8.456;2023-06-04T08:02:42;38.00;39.60
11387;DHT22;5748;53.102;8.456;2023-06-04T08:05:09;38.30;39.60
11387;DHT22;5748;53.102;8.456;2023-06-04T08:07:39;38.50;39.90
11387;DHT22;5748;53.102;8.456;2023-06-04T08:10:07;38.60;38.90
11387;DHT22;5748;53.102;8.456;2023-06-04T08:12:34;38.90;38.40
11387;DHT22;5748;53.102;8.456;2023-06-04T08:15:02;38.90;38.00
11387;DHT22;5748;53.102;8.456;2023-06-04T08:17:31;38.90;37.50
11387;DHT22;5748;53.102;8.456;2023-06-04T08:19:59;39.00;38.40
11387;DHT22;5748;53.102;8.456;2023-06-04T08:22:26;39.10;37.60
11387;DHT22;5748;53.102;8.456;2023-06-04T08:24:54;39.20;37.20
11387;DHT22;5748;53.102;8.456;2023-06-04T08:27:21;39.40;36.90
11387;DHT22;5748;53.102;8.456;2023-06-04T08:29:48;39.50;36.40
11387;DHT22;5748;53.102;8.456;2023-06-04T08:32:15;39.70;36.30
11387;DHT22;5748;53.102;8.456;2023-06-04T08:34:42;39.70;36.50
11387;DHT22;5748;53.102;8.456;2023-06-04T08:37:11;39.90;35.90
11387;DHT22;5748;53.102;8.456;2023-06-04T08:39:38;40.10;35.30
11387;DHT22;5748;53.102;8.456;2023-06-04T08:42:06;40.30;35.50
11387;DHT22;5748;53.102;8.456;2023-06-04T08:44:34;40.50;35.10
11387;DHT22;5748;53.102;8.456;2023-06-04T08:47:03;40.70;35.20
11387;DHT22;5748;53.102;8.456;2023-06-04T08:49:34;40.80;34.50
11387;DHT22;5748;53.102;8.456;2023-06-04T08:52:03;41.00;34.00
11387;DHT22;5748;53.102;8.456;2023-06-04T08:54:33;41.10;33.90
11387;DHT22;5748;53.102;8.456;2023-06-04T08:57:00;41.20;32.90
11387;DHT22;5748;53.102;8.456;2023-06-04T08:59:27;41.20;33.10
11387;DHT22;5748;53.102;8.456;2023-06-04T09:01:55;41.20;33.00
11387;DHT22;5748;53.102;8.456;2023-06-04T09:04:22;41.20;33.50
11387;DHT22;5748;53.102;8.456;2023-06-04T09:06:50;41.10;32.40
11387;DHT22;5748;53.102;8.456;2023-06-04T09:09:19;41.10;32.70
11387;DHT22;5748;53.102;8.456;2023-06-04T09:11:51;41.10;31.70
11387;DHT22;5748;53.102;8.456;2023-06-04T09:14:19;41.00;31.00
11387;DHT22;5748;53.102;8.456;2023-06-04T09:16:47;41.00;32.30
11387;DHT22;5748;53.102;8.456;2023-06-04T09:19:16;41.00;32.00
11387;DHT22;5748;53.102;8.456;2023-06-04T09:21:48;41.00;31.90
11387;DHT22;5748;53.102;8.456;2023-06-04T09:24:16;41.10;30.60
11387;DHT22;5748;53.102;8.456;2023-06-04T09:26:43;41.20;31.50
11387;DHT22;5748;53.102;8.456;2023-06-04T09:29:11;41.20;30.90
11387;DHT22;5748;53.102;8.456;2023-06-04T09:31:39;41.20;30.80
11387;DHT22;5748;53.102;8.456;2023-06-04T09:34:06;41.20;30.60
11387;DHT22;5748;53.102;8.456;2023-06-04T09:36:34;41.20;30.50
11387;DHT22;5748;53.102;8.456;2023-06-04T09:39:02;41.40;30.20
11387;DHT22;5748;53.102;8.456;2023-06-04T09:41:30;41.40;30.00
11387;DHT22;5748;53.102;8.456;2023-06-04T09:44:00;41.50;29.90
11387;DHT22;5748;53.102;8.456;2023-06-04T09:46:30;41.50;29.10
11387;DHT22;5748;53.102;8.456;2023-06-04T09:49:02;41.50;29.20
11387;DHT22;5748;53.102;8.456;2023-06-04T09:51:31;41.40;29.50
11387;DHT22;5748;53.102;8.456;2023-06-04T09:54:00;41.40;29.10
11387;DHT22;5748;53.102;8.456;2023-06-04T09:56:27;41.30;28.90
11387;DHT22;5748;53.102;8.456;2023-06-04T09:58:56;41.20;28.90
11387;DHT22;5748;53.102;8.456;2023-06-04T10:01:28;41.10;29.20
11387;DHT22;5748;53.102;8.456;2023-06-04T10:04:02;40.90;29.10
11387;DHT22;5748;53.102;8.456;2023-06-04T10:06:33;40.90;28.50
11387;DHT22;5748;53.102;8.456;2023-06-04T10:09:05;40.90;28.20
11387;DHT22;5748;53.102;8.456;2023-06-04T10:11:35;40.90;28.10
11387;DHT22;5748;53.102;8.456;2023-06-04T10:14:07;40.90;28.20
11387;DHT22;5748;53.102;8.456;2023-06-04T10:16:40;41.00;28.50
11387;DHT22;5748;53.102;8.456;2023-06-04T10:19:07;41.00;28.10
11387;DHT22;5748;53.102;8.456;2023-06-04T10:21:35;41.10;28.30
11387;DHT22;5748;53.102;8.456;2023-06-04T10:24:03;41.20;28.20
11387;DHT22;5748;53.102;8.456;2023-06-04T10:26:33;41.20;27.90
11387;DHT22;5748;53.102;8.456;2023-06-04T10:29:01;41.20;27.70
11387;DHT22;5748;53.102;8.456;2023-06-04T10:31:28;41.20;27.70
11387;DHT22;5748;53.102;8.456;2023-06-04T10:33:57;41.20;27.70
11387;DHT22;5748;53.102;8.456;2023-06-04T10:36:24;41.20;27.70
11387;DHT22;5748;53.102;8.456;2023-06-04T10:38:53;41.30;27.60
11387;DHT22;5748;53.102;8.456;2023-06-04T10:41:22;41.30;27.00
11387;DHT22;5748;53.102;8.456;2023-06-04T10:43:52;41.30;27.30
11387;DHT22;5748;53.102;8.456;2023-06-04T10:46:37;41.30;27.30
11387;DHT22;5748;53.102;8.456;2023-06-04T10:49:09;41.30;26.70
11387;DHT22;5748;53.102;8.456;2023-06-04T10:51:36;41.40;27.00
11387;DHT22;5748;53.102;8.456;2023-06-04T10:54:04;41.50;27.70
11387;DHT22;5748;53.102;8.456;2023-06-04T10:56:32;41.60;27.40
11387;DHT22;5748;53.102;8.456;2023-06-04T10:59:00;41.70;27.40
11387;DHT22;5748;53.102;8.456;2023-06-04T11:01:38;41.80;27.30
11387;DHT22;5748;53.102;8.456;2023-06-04T11:04:07;41.80;27.30
11387;DHT22;5748;53.102;8.456;2023-06-04T11:06:44;41.90;26.80
11387;DHT22;5748;53.102;8.456;2023-06-04T11:09:13;41.90;26.60
11387;DHT22;5748;53.102;8.456;2023-06-04T11:11:42;41.70;26.60
11387;DHT22;5748;53.102;8.456;2023-06-04T11:14:10;41.60;26.40
11387;DHT22;5748;53.102;8.456;2023-06-04T11:16:38;41.60;26.50
11387;DHT22;5748;53.102;8.456;2023-06-04T11:19:06;41.50;26.40
11387;DHT22;5748;53.102;8.456;2023-06-04T11:21:34;41.40;26.60
11387;DHT22;5748;53.102;8.456;2023-06-04T11:24:04;41.50;26.80
11387;DHT22;5748;53.102;8.456;2023-06-04T11:26:32;41.50;26.10
11387;DHT22;5748;53.102;8.456;2023-06-04T11:28:59;41.40;26.20
11387;DHT22;5748;53.102;8.456;2023-06-04T11:31:27;41.40;26.40
11387;DHT22;5748;53.102;8.456;2023-06-04T11:33:54;41.40;26.30
11387;DHT22;5748;53.102;8.456;2023-06-04T11:36:26;41.40;27.10
11387;DHT22;5748;53.102;8.456;2023-06-04T11:38:55;41.40;26.20
11387;DHT22;5748;53.102;8.456;2023-06-04T11:41:23;41.30;26.60
11387;DHT22;5748;53.102;8.456;2023-06-04T11:43:51;41.30;26.80
11387;DHT22;5748;53.102;8.456;2023-06-04T11:46:19;41.30;26.40
11387;DHT22;5748;53.102;8.456;2023-06-04T11:48:46;41.20;26.30
11387;DHT22;5748;53.102;8.456;2023-06-04T11:51:13;41.20;26.50
11387;DHT22;5748;53.102;8.456;2023-06-04T11:53:42;40.90;26.40
11387;DHT22;5748;53.102;8.456;2023-06-04T11:56:09;40.70;25.90
11387;DHT22;5748;53.102;8.456;2023-06-04T11:58:36;40.50;26.00
11387;DHT22;5748;53.102;8.456;2023-06-04T12:01:06;40.30;26.00
11387;DHT22;5748;53.102;8.456;2023-06-04T12:03:34;40.10;26.00
11387;DHT22;5748;53.102;8.456;2023-06-04T12:06:13;40.00;26.00
11387;DHT22;5748;53.102;8.456;2023-06-04T12:08:47;39.90;25.70
11387;DHT22;5748;53.102;8.456;2023-06-04T12:11:28;39.80;26.00
11387;DHT22;5748;53.102;8.456;2023-06-04T12:13:58;39.70;25.70
11387;DHT22;5748;53.102;8.456;2023-06-04T12:16:26;39.60;26.00
11387;DHT22;5748;53.102;8.456;2023-06-04T12:19:05;39.60;26.20
11387;DHT22;5748;53.102;8.456;2023-06-04T12:21:33;39.50;25.70
11387;DHT22;5748;53.102;8.456;2023-06-04T12:24:08;39.50;26.20
11387;DHT22;5748;53.102;8.456;2023-06-04T12:26:37;39.40;25.80
11387;DHT22;5748;53.102;8.456;2023-06-04T12:29:10;39.40;26.40
11387;DHT22;5748;53.102;8.456;2023-06-04T12:31:39;39.40;26.30
11387;DHT22;5748;53.102;8.456;2023-06-04T12:34:07;39.40;26.70
11387;DHT22;5748;53.102;8.456;2023-06-04T12:36:34;39.40;26.60
11387;DHT22;5748;53.102;8.456;2023-06-04T12:39:03;39.30;26.40
11387;DHT22;5748;53.102;8.456;2023-06-04T12:41:32;39.10;26.30
11387;DHT22;5748;53.102;8.456;2023-06-04T12:44:00;38.90;25.90
11387;DHT22;5748;53.102;8.456;2023-06-04T12:46:27;38.50;25.90
11387;DHT22;5748;53.102;8.456;2023-06-04T12:48:54;38.10;25.60
11387;DHT22;5748;53.102;8.456;2023-06-04T12:51:21;37.70;25.60
11387;DHT22;5748;53.102;8.456;2023-06-04T12:53:48;37.20;25.70
11387;DHT22;5748;53.102;8.456;2023-06-04T12:56:16;36.70;25.70
11387;DHT22;5748;53.102;8.456;2023-06-04T12:58:44;36.30;25.70
11387;DHT22;5748;53.102;8.456;2023-06-04T13:01:11;35.90;25.60
11387;DHT22;5748;53.102;8.456;2023-06-04T13:03:40;35.40;25.60
11387;DHT22;5748;53.102;8.456;2023-06-04T13:06:07;35.00;25.80
11387;DHT22;5748;53.102;8.456;2023-06-04T13:08:35;34.50;25.90
11387;DHT22;5748;53.102;8.456;2023-06-04T13:11:03;34.10;26.30
11387;DHT22;5748;53.102;8.456;2023-06-04T13:13:31;33.60;26.40
11387;DHT22;5748;53.102;8.456;2023-06-04T13:15:59;33.20;26.30
11387;DHT22;5748;53.102;8.456;2023-06-04T13:18:26;32.90;26.60
11387;DHT22;5748;53.102;8.456;2023-06-04T13:20:53;32.60;26.70
11387;DHT22;5748;53.102;8.456;2023-06-04T13:23:20;32.30;27.00
11387;DHT22;5748;53.102;8.456;2023-06-04T13:25:47;32.10;26.80
11387;DHT22;5748;53.102;8.456;2023-06-04T13:28:14;31.90;27.20
11387;DHT22;5748;53.102;8.456;2023-06-04T13:30:41;31.70;27.30
11387;DHT22;5748;53.102;8.456;2023-06-04T13:33:09;31.40;27.30
11387;DHT22;5748;53.102;8.456;2023-06-04T13:35:36;31.20;27.50
11387;DHT22;5748;53.102;8.456;2023-06-04T13:38:04;31.00;27.50
11387;DHT22;5748;53.102;8.456;2023-06-04T13:40:33;30.80;27.60
11387;DHT22;5748;53.102;8.456;2023-06-04T13:43:01;30.60;27.80
11387;DHT22;5748;53.102;8.456;2023-06-04T13:45:28;30.50;28.00
11387;DHT22;5748;53.102;8.456;2023-06-04T13:47:55;30.30;28.10
11387;DHT22;5748;53.102;8.456;2023-06-04T13:50:26;30.10;28.30
11387;DHT22;5748;53.102;8.456;2023-06-04T13:52:53;29.90;28.50
11387;DHT22;5748;53.102;8.456;2023-06-04T13:55:20;29.70;28.50
11387;DHT22;5748;53.102;8.456;2023-06-04T13:57:47;29.50;28.50
11387;DHT22;5748;53.102;8.456;2023-06-04T14:00:14;29.40;28.90
11387;DHT22;5748;53.102;8.456;2023-06-04T14:02:41;29.30;28.90
11387;DHT22;5748;53.102;8.456;2023-06-04T14:05:08;29.20;29.00
11387;DHT22;5748;53.102;8.456;2023-06-04T14:07:37;29.10;29.30
11387;DHT22;5748;53.102;8.456;2023-06-04T14:10:05;28.90;29.20
11387;DHT22;5748;53.102;8.456;2023-06-04T14:12:32;29.00;29.50
11387;DHT22;5748;53.102;8.456;2023-06-04T14:14:59;28.90;29.40
11387;DHT22;5748;53.102;8.456;2023-06-04T14:17:26;28.80;29.40
11387;DHT22;5748;53.102;8.456;2023-06-04T14:19:53;28.80;29.80
11387;DHT22;5748;53.102;8.456;2023-06-04T14:22:20;28.80;29.80
11387;DHT22;5748;53.102;8.456;2023-06-04T14:24:48;28.60;29.70
11387;DHT22;5748;53.102;8.456;2023-06-04T14:27:15;28.50;29.90
11387;DHT22;5748;53.102;8.456;2023-06-04T14:29:42;28.50;30.00
11387;DHT22;5748;53.102;8.456;2023-06-04T14:32:09;28.40;30.10
11387;DHT22;5748;53.102;8.456;2023-06-04T14:34:36;28.30;30.10
11387;DHT22;5748;53.102;8.456;2023-06-04T14:37:03;28.20;30.50
11387;DHT22;5748;53.102;8.456;2023-06-04T14:39:30;28.10;30.40
11387;DHT22;5748;53.102;8.456;2023-06-04T14:41:59;28.10;30.70
11387;DHT22;5748;53.102;8.456;2023-06-04T14:44:25;28.00;30.60
11387;DHT22;5748;53.102;8.456;2023-06-04T14:46:52;28.50;31.00
11387;DHT22;5748;53.102;8.456;2023-06-04T14:49:19;27.80;30.80
11387;DHT22;5748;53.102;8.456;2023-06-04T14:51:46;28.20;31.30
11387;DHT22;5748;53.102;8.456;2023-06-04T14:54:13;27.60;31.60
11387;DHT22;5748;53.102;8.456;2023-06-04T14:56:40;27.40;31.30
11387;DHT22;5748;53.102;8.456;2023-06-04T14:59:09;27.50;31.60
11387;DHT22;5748;53.102;8.456;2023-06-04T15:01:38;27.70;32.30
11387;DHT22;5748;53.102;8.456;2023-06-04T15:04:06;27.40;31.70
11387;DHT22;5748;53.102;8.456;2023-06-04T15:06:33;27.40;31.70
11387;DHT22;5748;53.102;8.456;2023-06-04T15:09:00;27.30;31.60
11387;DHT22;5748;53.102;8.456;2023-06-04T15:11:29;27.30;31.90
11387;DHT22;5748;53.102;8.456;2023-06-04T15:13:56;27.20;31.80
11387;DHT22;5748;53.102;8.456;2023-06-04T15:16:24;27.70;32.30
11387;DHT22;5748;53.102;8.456;2023-06-04T15:18:51;27.40;32.10
11387;DHT22;5748;53.102;8.456;2023-06-04T15:21:18;27.00;31.80
11387;DHT22;5748;53.102;8.456;2023-06-04T15:23:45;27.40;32.20
11387;DHT22;5748;53.102;8.456;2023-06-04T15:26:15;26.90;32.00
11387;DHT22;5748;53.102;8.456;2023-06-04T15:28:42;26.90;32.20
11387;DHT22;5748;53.102;8.456;2023-06-04T15:31:09;26.70;32.20
11387;DHT22;5748;53.102;8.456;2023-06-04T15:33:37;26.70;32.30
11387;DHT22;5748;53.102;8.456;2023-06-04T15:36:05;26.60;32.30
11387;DHT22;5748;53.102;8.456;2023-06-04T15:38:32;26.50;32.60
11387;DHT22;5748;53.102;8.456;2023-06-04T15:40:59;26.50;33.00
11387;DHT22;5748;53.102;8.456;2023-06-04T15:43:26;26.40;32.90
11387;DHT22;5748;53.102;8.456;2023-06-04T15:45:53;26.30;32.90
11387;DHT22;5748;53.102;8.456;2023-06-04T15:48:20;26.30;32.90
11387;DHT22;5748;53.102;8.456;2023-06-04T15:50:49;26.20;33.10
11387;DHT22;5748;53.102;8.456;2023-06-04T15:53:16;26.20;33.20
11387;DHT22;5748;53.102;8.456;2023-06-04T15:55:43;26.10;33.70
11387;DHT22;5748;53.102;8.456;2023-06-04T15:58:10;26.20;33.80
11387;DHT22;5748;53.102;8.456;2023-06-04T16:00:37;25.90;33.60
11387;DHT22;5748;53.102;8.456;2023-06-04T16:03:04;25.80;33.80
11387;DHT22;5748;53.102;8.456;2023-06-04T16:05:31;25.70;34.00
11387;DHT22;5748;53.102;8.456;2023-06-04T16:08:00;25.80;34.10